Accueil
METAR-TAF:

METAR-TAF

Aéroports :

Aéroport international de Xi'an Xianyang

Xi'an, Chine

latitude: 34-26N, longitude: 108-45E, altitude: 479 m

Observation

Le bulletin a été fait il y a 10 minutes, à 23:00 UTC
Vent 4 kt de nord, variant entre nord/nord-ouest et nord-est
Température 25°C
Humidité 74%
Pression 1013 hPa
Visibilité 10 km ou plus
Quelques nuages à une hauteur de 4000 ft
Nuages épars à une hauteur de 7000 ft

METAR: ZLXY 162300Z 01002MPS 330V050 9999 FEW040 SCT070 25/20 Q1013 NOSIG

Heure: 07:10 (23:10 UTC)

Prévision

Le bulletin a été fait il y a 7 heures et 58 minutes, à 15:12 UTC
Prévision valable du 16 à 18 UTC au 17 à 18 UTC
Vent 6 kt de ouest
Visibilité: 5000 m
brume sèche
Temporairement
du 17 à 00 UTC au 17 à 06 UTC
Quelques nuages à une hauteur de 4000 ft, Cumulonimbus.
averses de pluie

TAF: ZLXY 161512Z 1618/1718 26003MPS 5000 HZ NSC TX33/1708Z TN24/1622Z TEMPO 1700/1706 SHRA FEW040CB

Observations et prévisions météorologiques de plus de 4000 aéroports (messages METAR et TAF).

Les stations disponibles sont représentées par des disques jaunes et rouges sur la carte.

Passer la souris dessus pour voir le nom de la station.

Cliquer dessus pour voir les observations et prévisions météorologiques.

Pour changer de carte: cliquez sur les boutons verts avec une croix noire pour zoomer, sur le bouton vert avec un tiret pour effectuer un zoom arrière, ou sur les flèches vertes pour les cartes adjacentes.


METAR-TAF: